sensor_id;sensor_type;location;lat;lon;timestamp;temperature;humidity
16273;DHT22;8244;50.044;9.006;2023-10-09T00:03:07;13.70;99.90
16273;DHT22;8244;50.044;9.006;2023-10-09T00:08:09;13.70;99.90
16273;DHT22;8244;50.044;9.006;2023-10-09T00:13:12;13.70;99.90
16273;DHT22;8244;50.044;9.006;2023-10-09T00:18:15;13.70;99.90
16273;DHT22;8244;50.044;9.006;2023-10-09T00:23:22;13.70;99.90
16273;DHT22;8244;50.044;9.006;2023-10-09T00:28:26;13.70;99.90
16273;DHT22;8244;50.044;9.006;2023-10-09T00:33:29;13.70;99.90
16273;DHT22;8244;50.044;9.006;2023-10-09T00:38:30;13.70;99.90
16273;DHT22;8244;50.044;9.006;2023-10-09T00:43:35;13.60;99.90
16273;DHT22;8244;50.044;9.006;2023-10-09T00:48:39;13.50;99.90
16273;DHT22;8244;50.044;9.006;2023-10-09T00:53:43;13.50;99.90
16273;DHT22;8244;50.044;9.006;2023-10-09T00:58:46;13.50;99.90
16273;DHT22;8244;50.044;9.006;2023-10-09T01:03:50;13.50;99.90
16273;DHT22;8244;50.044;9.006;2023-10-09T01:08:52;13.50;99.90
16273;DHT22;8244;50.044;9.006;2023-10-09T01:14:09;13.50;99.90
16273;DHT22;8244;50.044;9.006;2023-10-09T01:19:14;13.60;99.90
16273;DHT22;8244;50.044;9.006;2023-10-09T01:24:22;13.60;99.90
16273;DHT22;8244;50.044;9.006;2023-10-09T01:29:27;13.60;99.90
16273;DHT22;8244;50.044;9.006;2023-10-09T01:34:31;13.60;99.90
16273;DHT22;8244;50.044;9.006;2023-10-09T01:39:43;13.50;99.90
16273;DHT22;8244;50.044;9.006;2023-10-09T01:44:46;13.50;99.90
16273;DHT22;8244;50.044;9.006;2023-10-09T01:49:48;13.40;99.90
16273;DHT22;8244;50.044;9.006;2023-10-09T01:54:54;13.30;99.90
16273;DHT22;8244;50.044;9.006;2023-10-09T02:00:02;13.20;99.90
16273;DHT22;8244;50.044;9.006;2023-10-09T02:05:07;13.20;99.90
16273;DHT22;8244;50.044;9.006;2023-10-09T02:10:13;13.20;99.90
16273;DHT22;8244;50.044;9.006;2023-10-09T02:15:26;13.10;99.90
16273;DHT22;8244;50.044;9.006;2023-10-09T02:20:52;13.00;99.90
16273;DHT22;8244;50.044;9.006;2023-10-09T02:26:02;13.00;99.90
16273;DHT22;8244;50.044;9.006;2023-10-09T02:31:10;12.90;99.90
16273;DHT22;8244;50.044;9.006;2023-10-09T02:36:12;12.90;99.90
16273;DHT22;8244;50.044;9.006;2023-10-09T02:41:16;12.90;99.90
16273;DHT22;8244;50.044;9.006;2023-10-09T02:46:28;12.90;99.90
16273;DHT22;8244;50.044;9.006;2023-10-09T02:51:31;12.90;99.90
16273;DHT22;8244;50.044;9.006;2023-10-09T02:56:43;12.80;99.90
16273;DHT22;8244;50.044;9.006;2023-10-09T03:01:48;12.80;99.90
16273;DHT22;8244;50.044;9.006;2023-10-09T03:06:53;12.80;99.90
16273;DHT22;8244;50.044;9.006;2023-10-09T03:12:00;12.80;99.90
16273;DHT22;8244;50.044;9.006;2023-10-09T03:17:04;12.80;99.90
16273;DHT22;8244;50.044;9.006;2023-10-09T03:22:06;12.70;99.90
16273;DHT22;8244;50.044;9.006;2023-10-09T03:27:12;12.70;99.90
16273;DHT22;8244;50.044;9.006;2023-10-09T03:32:14;12.70;99.90
16273;DHT22;8244;50.044;9.006;2023-10-09T03:37:16;12.60;99.90
16273;DHT22;8244;50.044;9.006;2023-10-09T03:42:35;12.60;99.90
16273;DHT22;8244;50.044;9.006;2023-10-09T03:47:37;12.60;99.90
16273;DHT22;8244;50.044;9.006;2023-10-09T03:52:41;12.60;99.90
16273;DHT22;8244;50.044;9.006;2023-10-09T03:57:45;12.60;99.90
16273;DHT22;8244;50.044;9.006;2023-10-09T04:02:46;12.60;99.90
16273;DHT22;8244;50.044;9.006;2023-10-09T04:07:50;12.50;99.90
16273;DHT22;8244;50.044;9.006;2023-10-09T04:12:55;12.50;99.90
16273;DHT22;8244;50.044;9.006;2023-10-09T04:17:59;12.60;99.90
16273;DHT22;8244;50.044;9.006;2023-10-09T04:23:03;12.50;99.90
16273;DHT22;8244;50.044;9.006;2023-10-09T04:28:08;12.50;99.90
16273;DHT22;8244;50.044;9.006;2023-10-09T04:33:10;12.50;99.90
16273;DHT22;8244;50.044;9.006;2023-10-09T04:38:28;12.50;99.90
16273;DHT22;8244;50.044;9.006;2023-10-09T04:43:36;12.50;99.90
16273;DHT22;8244;50.044;9.006;2023-10-09T04:48:44;12.50;99.90
16273;DHT22;8244;50.044;9.006;2023-10-09T04:53:46;12.50;99.90
16273;DHT22;8244;50.044;9.006;2023-10-09T04:58:56;12.50;99.90
16273;DHT22;8244;50.044;9.006;2023-10-09T05:04:04;12.50;99.90
16273;DHT22;8244;50.044;9.006;2023-10-09T05:09:15;12.40;99.90
16273;DHT22;8244;50.044;9.006;2023-10-09T05:14:22;12.30;99.90
16273;DHT22;8244;50.044;9.006;2023-10-09T05:19:39;12.40;99.90
16273;DHT22;8244;50.044;9.006;2023-10-09T05:24:56;12.40;99.90
16273;DHT22;8244;50.044;9.006;2023-10-09T05:30:00;12.40;99.90
16273;DHT22;8244;50.044;9.006;2023-10-09T05:35:14;12.40;99.90
16273;DHT22;8244;50.044;9.006;2023-10-09T05:40:17;12.40;99.90
16273;DHT22;8244;50.044;9.006;2023-10-09T05:45:32;12.40;99.90
16273;DHT22;8244;50.044;9.006;2023-10-09T05:50:51;12.40;99.90
16273;DHT22;8244;50.044;9.006;2023-10-09T05:56:07;12.50;99.90
16273;DHT22;8244;50.044;9.006;2023-10-09T06:01:28;12.50;99.90
16273;DHT22;8244;50.044;9.006;2023-10-09T06:06:47;12.50;99.90
16273;DHT22;8244;50.044;9.006;2023-10-09T06:11:57;12.60;99.90
16273;DHT22;8244;50.044;9.006;2023-10-09T06:17:13;12.60;99.90
16273;DHT22;8244;50.044;9.006;2023-10-09T06:22:23;12.70;99.90
16273;DHT22;8244;50.044;9.006;2023-10-09T06:27:44;12.80;99.90
16273;DHT22;8244;50.044;9.006;2023-10-09T06:33:03;12.80;99.90
16273;DHT22;8244;50.044;9.006;2023-10-09T06:38:20;12.90;99.90
16273;DHT22;8244;50.044;9.006;2023-10-09T06:43:40;13.00;99.90
16273;DHT22;8244;50.044;9.006;2023-10-09T06:48:49;13.10;99.90
16273;DHT22;8244;50.044;9.006;2023-10-09T06:53:57;13.20;99.90
16273;DHT22;8244;50.044;9.006;2023-10-09T06:59:07;13.40;99.90
16273;DHT22;8244;50.044;9.006;2023-10-09T07:04:18;13.50;99.90
16273;DHT22;8244;50.044;9.006;2023-10-09T07:09:19;13.60;99.90
16273;DHT22;8244;50.044;9.006;2023-10-09T07:14:22;13.70;99.90
16273;DHT22;8244;50.044;9.006;2023-10-09T07:19:55;13.80;99.90
16273;DHT22;8244;50.044;9.006;2023-10-09T07:25:14;13.90;99.90
16273;DHT22;8244;50.044;9.006;2023-10-09T07:30:28;14.10;99.90
16273;DHT22;8244;50.044;9.006;2023-10-09T07:35:40;14.50;99.90
16273;DHT22;8244;50.044;9.006;2023-10-09T07:40:49;14.70;99.90
16273;DHT22;8244;50.044;9.006;2023-10-09T07:45:56;15.00;99.90
16273;DHT22;8244;50.044;9.006;2023-10-09T07:51:18;15.10;99.90
16273;DHT22;8244;50.044;9.006;2023-10-09T07:56:23;15.20;99.90
16273;DHT22;8244;50.044;9.006;2023-10-09T08:01:30;15.40;99.90
16273;DHT22;8244;50.044;9.006;2023-10-09T08:06:39;15.40;99.90
16273;DHT22;8244;50.044;9.006;2023-10-09T08:11:45;15.50;99.90
16273;DHT22;8244;50.044;9.006;2023-10-09T08:17:15;15.50;99.90
16273;DHT22;8244;50.044;9.006;2023-10-09T08:22:23;15.70;99.90
16273;DHT22;8244;50.044;9.006;2023-10-09T08:27:44;15.80;99.90
16273;DHT22;8244;50.044;9.006;2023-10-09T08:32:55;15.90;99.90
16273;DHT22;8244;50.044;9.006;2023-10-09T08:38:04;15.90;99.90
16273;DHT22;8244;50.044;9.006;2023-10-09T08:43:10;16.00;99.90
16273;DHT22;8244;50.044;9.006;2023-10-09T08:48:15;16.10;99.90
16273;DHT22;8244;50.044;9.006;2023-10-09T08:53:20;16.10;99.90
16273;DHT22;8244;50.044;9.006;2023-10-09T08:58:23;16.20;99.90
16273;DHT22;8244;50.044;9.006;2023-10-09T09:03:38;16.30;99.90
16273;DHT22;8244;50.044;9.006;2023-10-09T09:08:43;16.50;99.90
16273;DHT22;8244;50.044;9.006;2023-10-09T09:13:46;16.60;99.90
16273;DHT22;8244;50.044;9.006;2023-10-09T09:18:51;16.70;99.90
16273;DHT22;8244;50.044;9.006;2023-10-09T09:24:02;16.90;99.90
16273;DHT22;8244;50.044;9.006;2023-10-09T09:29:15;17.30;99.90
16273;DHT22;8244;50.044;9.006;2023-10-09T09:34:19;17.70;99.90
16273;DHT22;8244;50.044;9.006;2023-10-09T09:39:27;17.90;99.90
16273;DHT22;8244;50.044;9.006;2023-10-09T09:44:31;18.10;99.90
16273;DHT22;8244;50.044;9.006;2023-10-09T09:49:34;18.20;99.90
16273;DHT22;8244;50.044;9.006;2023-10-09T09:54:40;18.20;99.90
16273;DHT22;8244;50.044;9.006;2023-10-09T09:59:41;18.30;99.90
16273;DHT22;8244;50.044;9.006;2023-10-09T10:04:57;18.50;99.90
16273;DHT22;8244;50.044;9.006;2023-10-09T10:10:01;18.70;99.90
16273;DHT22;8244;50.044;9.006;2023-10-09T10:15:09;18.80;99.90
16273;DHT22;8244;50.044;9.006;2023-10-09T10:20:15;18.90;99.90
16273;DHT22;8244;50.044;9.006;2023-10-09T10:25:34;18.90;99.90
16273;DHT22;8244;50.044;9.006;2023-10-09T10:30:45;18.90;99.90
16273;DHT22;8244;50.044;9.006;2023-10-09T10:35:47;19.00;99.90
16273;DHT22;8244;50.044;9.006;2023-10-09T10:40:54;19.10;99.90
16273;DHT22;8244;50.044;9.006;2023-10-09T10:46:01;19.10;99.90
16273;DHT22;8244;50.044;9.006;2023-10-09T10:51:05;19.10;99.90
16273;DHT22;8244;50.044;9.006;2023-10-09T10:56:08;19.30;99.90
16273;DHT22;8244;50.044;9.006;2023-10-09T11:01:19;19.50;99.90
16273;DHT22;8244;50.044;9.006;2023-10-09T11:06:26;19.70;99.90
16273;DHT22;8244;50.044;9.006;2023-10-09T11:11:37;19.80;99.90
16273;DHT22;8244;50.044;9.006;2023-10-09T11:16:47;20.20;99.90
16273;DHT22;8244;50.044;9.006;2023-10-09T11:21:50;20.60;99.90
16273;DHT22;8244;50.044;9.006;2023-10-09T11:27:01;20.90;99.90
16273;DHT22;8244;50.044;9.006;2023-10-09T11:32:07;21.30;99.90
16273;DHT22;8244;50.044;9.006;2023-10-09T11:37:19;21.50;99.90
16273;DHT22;8244;50.044;9.006;2023-10-09T11:42:42;21.90;99.90
16273;DHT22;8244;50.044;9.006;2023-10-09T11:47:51;22.20;99.90
16273;DHT22;8244;50.044;9.006;2023-10-09T11:52:58;22.40;99.90
16273;DHT22;8244;50.044;9.006;2023-10-09T11:58:35;22.50;99.90
16273;DHT22;8244;50.044;9.006;2023-10-09T12:03:40;22.60;99.90
16273;DHT22;8244;50.044;9.006;2023-10-09T12:08:43;22.80;99.90
16273;DHT22;8244;50.044;9.006;2023-10-09T12:13:48;23.00;99.90
16273;DHT22;8244;50.044;9.006;2023-10-09T12:18:50;23.00;99.90
16273;DHT22;8244;50.044;9.006;2023-10-09T12:23:53;23.10;99.90
16273;DHT22;8244;50.044;9.006;2023-10-09T12:28:59;23.20;99.90
16273;DHT22;8244;50.044;9.006;2023-10-09T12:34:00;23.20;99.90
16273;DHT22;8244;50.044;9.006;2023-10-09T12:39:02;23.20;99.90
16273;DHT22;8244;50.044;9.006;2023-10-09T12:44:07;23.30;99.90
16273;DHT22;8244;50.044;9.006;2023-10-09T12:49:15;23.40;99.90
16273;DHT22;8244;50.044;9.006;2023-10-09T12:54:16;23.40;99.90
16273;DHT22;8244;50.044;9.006;2023-10-09T12:59:22;23.50;99.90
16273;DHT22;8244;50.044;9.006;2023-10-09T13:04:24;23.50;99.90
16273;DHT22;8244;50.044;9.006;2023-10-09T13:09:31;23.60;99.90
16273;DHT22;8244;50.044;9.006;2023-10-09T13:14:44;23.60;99.90
16273;DHT22;8244;50.044;9.006;2023-10-09T13:19:47;23.60;99.90
16273;DHT22;8244;50.044;9.006;2023-10-09T13:24:49;23.70;99.90
16273;DHT22;8244;50.044;9.006;2023-10-09T13:29:54;23.80;99.90
16273;DHT22;8244;50.044;9.006;2023-10-09T13:35:06;23.70;99.90
16273;DHT22;8244;50.044;9.006;2023-10-09T13:40:08;23.80;99.90
16273;DHT22;8244;50.044;9.006;2023-10-09T13:45:12;23.70;99.90
16273;DHT22;8244;50.044;9.006;2023-10-09T13:50:17;23.60;99.90
16273;DHT22;8244;50.044;9.006;2023-10-09T13:55:22;23.60;99.90
16273;DHT22;8244;50.044;9.006;2023-10-09T14:00:33;23.60;99.90
16273;DHT22;8244;50.044;9.006;2023-10-09T14:05:34;23.50;99.90
16273;DHT22;8244;50.044;9.006;2023-10-09T14:10:37;23.40;99.90
16273;DHT22;8244;50.044;9.006;2023-10-09T14:15:41;23.40;99.90
16273;DHT22;8244;50.044;9.006;2023-10-09T14:20:43;23.40;99.90
16273;DHT22;8244;50.044;9.006;2023-10-09T14:25:46;23.40;99.90
16273;DHT22;8244;50.044;9.006;2023-10-09T14:30:53;23.30;99.90
16273;DHT22;8244;50.044;9.006;2023-10-09T14:35:59;23.20;99.90
16273;DHT22;8244;50.044;9.006;2023-10-09T14:41:02;23.20;99.90
16273;DHT22;8244;50.044;9.006;2023-10-09T14:46:05;23.10;99.90
16273;DHT22;8244;50.044;9.006;2023-10-09T14:51:11;23.10;99.90
16273;DHT22;8244;50.044;9.006;2023-10-09T14:56:13;23.00;99.90
16273;DHT22;8244;50.044;9.006;2023-10-09T15:01:18;22.90;99.90
16273;DHT22;8244;50.044;9.006;2023-10-09T15:06:21;22.80;99.90
16273;DHT22;8244;50.044;9.006;2023-10-09T15:11:25;22.80;99.90
16273;DHT22;8244;50.044;9.006;2023-10-09T15:16:30;22.70;99.90
16273;DHT22;8244;50.044;9.006;2023-10-09T15:21:32;22.60;99.90
16273;DHT22;8244;50.044;9.006;2023-10-09T15:26:35;22.40;99.90
16273;DHT22;8244;50.044;9.006;2023-10-09T15:31:38;22.30;99.90
16273;DHT22;8244;50.044;9.006;2023-10-09T15:36:42;22.20;99.90
16273;DHT22;8244;50.044;9.006;2023-10-09T15:41:43;22.10;99.90
16273;DHT22;8244;50.044;9.006;2023-10-09T15:46:47;21.90;99.90
16273;DHT22;8244;50.044;9.006;2023-10-09T15:51:49;21.80;99.90
16273;DHT22;8244;50.044;9.006;2023-10-09T15:56:51;21.70;99.90
16273;DHT22;8244;50.044;9.006;2023-10-09T16:01:56;21.60;99.90
16273;DHT22;8244;50.044;9.006;2023-10-09T16:07:00;21.40;99.90
16273;DHT22;8244;50.044;9.006;2023-10-09T16:12:06;21.30;99.90
16273;DHT22;8244;50.044;9.006;2023-10-09T16:17:09;21.20;99.90
16273;DHT22;8244;50.044;9.006;2023-10-09T16:22:13;21.00;99.90
16273;DHT22;8244;50.044;9.006;2023-10-09T16:27:14;20.90;99.90
16273;DHT22;8244;50.044;9.006;2023-10-09T16:32:21;20.60;99.90
16273;DHT22;8244;50.044;9.006;2023-10-09T16:37:24;20.50;99.90
16273;DHT22;8244;50.044;9.006;2023-10-09T16:42:26;20.30;99.90
16273;DHT22;8244;50.044;9.006;2023-10-09T16:47:29;20.10;99.90
16273;DHT22;8244;50.044;9.006;2023-10-09T16:52:30;19.90;99.90
16273;DHT22;8244;50.044;9.006;2023-10-09T16:57:32;19.70;99.90
16273;DHT22;8244;50.044;9.006;2023-10-09T17:02:36;19.60;99.90
16273;DHT22;8244;50.044;9.006;2023-10-09T17:07:39;19.40;99.90
16273;DHT22;8244;50.044;9.006;2023-10-09T17:12:45;19.20;99.90
16273;DHT22;8244;50.044;9.006;2023-10-09T17:17:48;19.10;99.90
16273;DHT22;8244;50.044;9.006;2023-10-09T17:22:51;19.00;99.90
16273;DHT22;8244;50.044;9.006;2023-10-09T17:27:53;18.80;99.90
16273;DHT22;8244;50.044;9.006;2023-10-09T17:32:57;18.70;99.90
16273;DHT22;8244;50.044;9.006;2023-10-09T17:37:59;18.60;99.90
16273;DHT22;8244;50.044;9.006;2023-10-09T17:43:00;18.50;99.90
16273;DHT22;8244;50.044;9.006;2023-10-09T17:48:06;18.20;99.90
16273;DHT22;8244;50.044;9.006;2023-10-09T17:53:08;18.10;99.90
16273;DHT22;8244;50.044;9.006;2023-10-09T17:58:11;18.00;99.90
16273;DHT22;8244;50.044;9.006;2023-10-09T18:03:14;17.90;99.90
16273;DHT22;8244;50.044;9.006;2023-10-09T18:08:16;17.80;99.90
16273;DHT22;8244;50.044;9.006;2023-10-09T18:13:17;17.70;99.90
16273;DHT22;8244;50.044;9.006;2023-10-09T18:18:21;17.60;99.90
16273;DHT22;8244;50.044;9.006;2023-10-09T18:23:22;17.40;99.90
16273;DHT22;8244;50.044;9.006;2023-10-09T18:28:24;17.30;99.90
16273;DHT22;8244;50.044;9.006;2023-10-09T18:33:27;17.10;99.90
16273;DHT22;8244;50.044;9.006;2023-10-09T18:38:29;16.90;99.90
16273;DHT22;8244;50.044;9.006;2023-10-09T18:43:31;16.80;99.90
16273;DHT22;8244;50.044;9.006;2023-10-09T18:48:34;16.70;99.90
16273;DHT22;8244;50.044;9.006;2023-10-09T18:53:35;16.50;99.90
16273;DHT22;8244;50.044;9.006;2023-10-09T18:58:37;16.40;99.90
16273;DHT22;8244;50.044;9.006;2023-10-09T19:03:40;16.20;99.90
16273;DHT22;8244;50.044;9.006;2023-10-09T19:08:42;16.10;99.90
16273;DHT22;8244;50.044;9.006;2023-10-09T19:13:43;15.90;99.90
16273;DHT22;8244;50.044;9.006;2023-10-09T19:18:48;15.80;99.90
16273;DHT22;8244;50.044;9.006;2023-10-09T19:23:50;15.60;99.90
16273;DHT22;8244;50.044;9.006;2023-10-09T19:28:52;15.60;99.90
16273;DHT22;8244;50.044;9.006;2023-10-09T19:33:55;15.40;99.90
16273;DHT22;8244;50.044;9.006;2023-10-09T19:38:57;15.40;99.90
16273;DHT22;8244;50.044;9.006;2023-10-09T19:44:00;15.30;99.90
16273;DHT22;8244;50.044;9.006;2023-10-09T19:49:06;15.20;99.90
16273;DHT22;8244;50.044;9.006;2023-10-09T19:54:09;15.10;99.90
16273;DHT22;8244;50.044;9.006;2023-10-09T19:59:11;15.00;99.90
16273;DHT22;8244;50.044;9.006;2023-10-09T20:04:14;15.00;99.90
16273;DHT22;8244;50.044;9.006;2023-10-09T20:09:16;14.90;99.90
16273;DHT22;8244;50.044;9.006;2023-10-09T20:14:18;14.80;99.90
16273;DHT22;8244;50.044;9.006;2023-10-09T20:19:22;14.70;99.90
16273;DHT22;8244;50.044;9.006;2023-10-09T20:24:24;14.60;99.90
16273;DHT22;8244;50.044;9.006;2023-10-09T20:29:26;14.50;99.90
16273;DHT22;8244;50.044;9.006;2023-10-09T20:34:30;14.50;99.90
16273;DHT22;8244;50.044;9.006;2023-10-09T20:39:31;14.50;99.90
16273;DHT22;8244;50.044;9.006;2023-10-09T20:44:33;14.40;99.90
16273;DHT22;8244;50.044;9.006;2023-10-09T20:49:37;14.30;99.90
16273;DHT22;8244;50.044;9.006;2023-10-09T20:54:43;14.20;99.90
16273;DHT22;8244;50.044;9.006;2023-10-09T20:59:45;14.10;99.90
16273;DHT22;8244;50.044;9.006;2023-10-09T21:04:48;14.10;99.90
16273;DHT22;8244;50.044;9.006;2023-10-09T21:09:52;14.00;99.90
16273;DHT22;8244;50.044;9.006;2023-10-09T21:14:54;13.90;99.90
16273;DHT22;8244;50.044;9.006;2023-10-09T21:20:00;13.90;99.90
16273;DHT22;8244;50.044;9.006;2023-10-09T21:25:01;13.80;99.90
16273;DHT22;8244;50.044;9.006;2023-10-09T21:30:05;13.70;99.90
16273;DHT22;8244;50.044;9.006;2023-10-09T21:35:12;13.70;99.90
16273;DHT22;8244;50.044;9.006;2023-10-09T21:40:16;13.70;99.90
16273;DHT22;8244;50.044;9.006;2023-10-09T21:45:26;13.60;99.90
16273;DHT22;8244;50.044;9.006;2023-10-09T21:50:29;13.60;99.90
16273;DHT22;8244;50.044;9.006;2023-10-09T21:55:31;13.50;99.90
16273;DHT22;8244;50.044;9.006;2023-10-09T22:00:34;13.50;99.90
16273;DHT22;8244;50.044;9.006;2023-10-09T22:05:38;13.50;99.90
16273;DHT22;8244;50.044;9.006;2023-10-09T22:10:42;13.40;99.90
16273;DHT22;8244;50.044;9.006;2023-10-09T22:15:45;13.30;99.90
16273;DHT22;8244;50.044;9.006;2023-10-09T22:20:51;13.30;99.90
16273;DHT22;8244;50.044;9.006;2023-10-09T22:25:54;13.30;99.90
16273;DHT22;8244;50.044;9.006;2023-10-09T22:31:01;13.30;99.90
16273;DHT22;8244;50.044;9.006;2023-10-09T22:36:05;13.30;99.90
16273;DHT22;8244;50.044;9.006;2023-10-09T22:41:10;13.20;99.90
16273;DHT22;8244;50.044;9.006;2023-10-09T22:46:20;13.20;99.90
16273;DHT22;8244;50.044;9.006;2023-10-09T22:51:24;13.20;99.90
16273;DHT22;8244;50.044;9.006;2023-10-09T22:56:30;13.10;99.90
16273;DHT22;8244;50.044;9.006;2023-10-09T23:01:31;13.10;99.90
16273;DHT22;8244;50.044;9.006;2023-10-09T23:06:35;13.00;99.90
16273;DHT22;8244;50.044;9.006;2023-10-09T23:11:41;13.00;99.90
16273;DHT22;8244;50.044;9.006;2023-10-09T23:16:43;13.00;99.90
16273;DHT22;8244;50.044;9.006;2023-10-09T23:21:50;13.00;99.90
16273;DHT22;8244;50.044;9.006;2023-10-09T23:27:08;12.90;99.90
16273;DHT22;8244;50.044;9.006;2023-10-09T23:32:26;12.90;99.90
16273;DHT22;8244;50.044;9.006;2023-10-09T23:37:34;12.90;99.90
16273;DHT22;8244;50.044;9.006;2023-10-09T23:42:37;12.80;99.90
16273;DHT22;8244;50.044;9.006;2023-10-09T23:47:39;12.80;99.90
16273;DHT22;8244;50.044;9.006;2023-10-09T23:52:42;12.80;99.90
16273;DHT22;8244;50.044;9.006;2023-10-09T23:57:47;12.80;99.90
